sensor_id;sensor_type;location;lat;lon;timestamp;temperature;humidity
45619;DHT22;31343;47.520;19.144;2024-01-11T00:00:16;-4.00;99.90
45619;DHT22;31343;47.520;19.144;2024-01-11T00:02:42;-4.00;99.90
45619;DHT22;31343;47.520;19.144;2024-01-11T00:05:08;-4.00;99.90
45619;DHT22;31343;47.520;19.144;2024-01-11T00:07:34;-4.00;99.90
45619;DHT22;31343;47.520;19.144;2024-01-11T00:10:01;-4.00;99.90
45619;DHT22;31343;47.520;19.144;2024-01-11T00:12:27;-4.00;99.90
45619;DHT22;31343;47.520;19.144;2024-01-11T00:14:53;-4.00;99.90
45619;DHT22;31343;47.520;19.144;2024-01-11T00:17:18;-4.10;99.90
45619;DHT22;31343;47.520;19.144;2024-01-11T00:19:44;-4.10;99.90
45619;DHT22;31343;47.520;19.144;2024-01-11T00:22:10;-4.20;99.90
45619;DHT22;31343;47.520;19.144;2024-01-11T00:24:35;-4.20;99.90
45619;DHT22;31343;47.520;19.144;2024-01-11T00:27:01;-4.20;99.90
45619;DHT22;31343;47.520;19.144;2024-01-11T00:29:27;-4.20;99.90
45619;DHT22;31343;47.520;19.144;2024-01-11T00:31:54;-4.20;99.90
45619;DHT22;31343;47.520;19.144;2024-01-11T00:34:20;-4.20;99.90
45619;DHT22;31343;47.520;19.144;2024-01-11T00:36:47;-4.20;99.90
45619;DHT22;31343;47.520;19.144;2024-01-11T00:39:12;-4.30;99.90
45619;DHT22;31343;47.520;19.144;2024-01-11T00:41:38;-4.30;99.90
45619;DHT22;31343;47.520;19.144;2024-01-11T00:44:04;-4.40;99.90
45619;DHT22;31343;47.520;19.144;2024-01-11T00:46:29;-4.50;99.90
45619;DHT22;31343;47.520;19.144;2024-01-11T00:48:55;-4.40;99.90
45619;DHT22;31343;47.520;19.144;2024-01-11T00:51:20;-4.40;99.90
45619;DHT22;31343;47.520;19.144;2024-01-11T00:53:46;-4.40;99.90
45619;DHT22;31343;47.520;19.144;2024-01-11T00:56:19;-4.50;99.90
45619;DHT22;31343;47.520;19.144;2024-01-11T00:58:45;-4.50;99.90
45619;DHT22;31343;47.520;19.144;2024-01-11T01:01:12;-4.40;99.90
45619;DHT22;31343;47.520;19.144;2024-01-11T01:03:39;-4.40;99.90
45619;DHT22;31343;47.520;19.144;2024-01-11T01:06:05;-4.50;99.90
45619;DHT22;31343;47.520;19.144;2024-01-11T01:08:30;-4.50;99.90
45619;DHT22;31343;47.520;19.144;2024-01-11T01:10:56;-4.50;99.90
45619;DHT22;31343;47.520;19.144;2024-01-11T01:13:22;-4.50;99.90
45619;DHT22;31343;47.520;19.144;2024-01-11T01:15:48;-4.50;99.90
45619;DHT22;31343;47.520;19.144;2024-01-11T01:18:14;-4.40;99.90
45619;DHT22;31343;47.520;19.144;2024-01-11T01:20:40;-4.40;99.90
45619;DHT22;31343;47.520;19.144;2024-01-11T01:23:05;-4.50;99.90
45619;DHT22;31343;47.520;19.144;2024-01-11T01:25:31;-4.50;99.90
45619;DHT22;31343;47.520;19.144;2024-01-11T01:27:58;-4.60;99.90
45619;DHT22;31343;47.520;19.144;2024-01-11T01:30:24;-4.60;99.90
45619;DHT22;31343;47.520;19.144;2024-01-11T01:32:50;-4.60;99.90
45619;DHT22;31343;47.520;19.144;2024-01-11T01:35:16;-4.60;99.90
45619;DHT22;31343;47.520;19.144;2024-01-11T01:37:42;-4.70;99.90
45619;DHT22;31343;47.520;19.144;2024-01-11T01:40:08;-4.70;99.90
45619;DHT22;31343;47.520;19.144;2024-01-11T01:42:34;-4.70;99.90
45619;DHT22;31343;47.520;19.144;2024-01-11T01:45:00;-4.70;99.90
45619;DHT22;31343;47.520;19.144;2024-01-11T01:47:26;-4.70;99.90
45619;DHT22;31343;47.520;19.144;2024-01-11T01:49:53;-4.70;99.90
45619;DHT22;31343;47.520;19.144;2024-01-11T01:52:20;-4.70;99.90
45619;DHT22;31343;47.520;19.144;2024-01-11T01:54:47;-4.80;99.90
45619;DHT22;31343;47.520;19.144;2024-01-11T01:57:14;-4.80;99.90
45619;DHT22;31343;47.520;19.144;2024-01-11T01:59:41;-4.80;99.90
45619;DHT22;31343;47.520;19.144;2024-01-11T02:02:09;-4.80;99.90
45619;DHT22;31343;47.520;19.144;2024-01-11T02:04:36;-4.80;99.90
45619;DHT22;31343;47.520;19.144;2024-01-11T02:07:02;-4.80;99.90
45619;DHT22;31343;47.520;19.144;2024-01-11T02:09:28;-4.70;99.90
45619;DHT22;31343;47.520;19.144;2024-01-11T02:11:55;-4.70;99.90
45619;DHT22;31343;47.520;19.144;2024-01-11T02:14:21;-4.70;99.90
45619;DHT22;31343;47.520;19.144;2024-01-11T02:16:47;-4.70;99.90
45619;DHT22;31343;47.520;19.144;2024-01-11T02:19:19;-4.80;99.90
45619;DHT22;31343;47.520;19.144;2024-01-11T02:21:46;-4.80;99.90
45619;DHT22;31343;47.520;19.144;2024-01-11T02:24:14;-4.80;99.90
45619;DHT22;31343;47.520;19.144;2024-01-11T02:27:18;-4.90;99.90
45619;DHT22;31343;47.520;19.144;2024-01-11T02:29:43;-4.90;99.90
45619;DHT22;31343;47.520;19.144;2024-01-11T02:32:09;-4.90;99.90
45619;DHT22;31343;47.520;19.144;2024-01-11T02:34:35;-5.00;99.90
45619;DHT22;31343;47.520;19.144;2024-01-11T02:37:01;-5.00;99.90
45619;DHT22;31343;47.520;19.144;2024-01-11T02:39:27;-5.10;99.90
45619;DHT22;31343;47.520;19.144;2024-01-11T02:41:57;-5.10;99.90
45619;DHT22;31343;47.520;19.144;2024-01-11T02:44:25;-5.10;99.90
45619;DHT22;31343;47.520;19.144;2024-01-11T02:46:51;-5.10;99.90
45619;DHT22;31343;47.520;19.144;2024-01-11T02:49:17;-5.20;99.90
45619;DHT22;31343;47.520;19.144;2024-01-11T02:51:42;-5.20;99.90
45619;DHT22;31343;47.520;19.144;2024-01-11T02:54:08;-5.10;99.90
45619;DHT22;31343;47.520;19.144;2024-01-11T02:56:34;-5.20;99.90
45619;DHT22;31343;47.520;19.144;2024-01-11T02:58:59;-5.30;99.90
45619;DHT22;31343;47.520;19.144;2024-01-11T03:01:26;-5.20;99.90
45619;DHT22;31343;47.520;19.144;2024-01-11T03:03:52;-5.20;99.90
45619;DHT22;31343;47.520;19.144;2024-01-11T03:06:18;-5.30;99.90
45619;DHT22;31343;47.520;19.144;2024-01-11T03:08:47;-5.40;99.90
45619;DHT22;31343;47.520;19.144;2024-01-11T03:11:14;-5.40;99.90
45619;DHT22;31343;47.520;19.144;2024-01-11T03:13:39;-5.40;99.90
45619;DHT22;31343;47.520;19.144;2024-01-11T03:16:05;-5.40;99.90
45619;DHT22;31343;47.520;19.144;2024-01-11T03:18:31;-5.30;99.90
45619;DHT22;31343;47.520;19.144;2024-01-11T03:20:57;-5.40;99.90
45619;DHT22;31343;47.520;19.144;2024-01-11T03:23:23;-5.40;99.90
45619;DHT22;31343;47.520;19.144;2024-01-11T03:25:48;-5.30;99.90
45619;DHT22;31343;47.520;19.144;2024-01-11T03:28:14;-5.40;99.90
45619;DHT22;31343;47.520;19.144;2024-01-11T03:30:40;-5.40;99.90
45619;DHT22;31343;47.520;19.144;2024-01-11T03:33:06;-5.50;99.90
45619;DHT22;31343;47.520;19.144;2024-01-11T03:35:31;-5.50;99.90
45619;DHT22;31343;47.520;19.144;2024-01-11T03:37:57;-5.40;99.90
45619;DHT22;31343;47.520;19.144;2024-01-11T03:40:22;-5.40;99.90
45619;DHT22;31343;47.520;19.144;2024-01-11T03:42:48;-5.40;99.90
45619;DHT22;31343;47.520;19.144;2024-01-11T03:45:18;-5.40;99.90
45619;DHT22;31343;47.520;19.144;2024-01-11T03:47:44;-5.40;99.90
45619;DHT22;31343;47.520;19.144;2024-01-11T03:50:10;-5.50;99.90
45619;DHT22;31343;47.520;19.144;2024-01-11T03:52:36;-5.40;99.90
45619;DHT22;31343;47.520;19.144;2024-01-11T03:55:02;-5.50;99.90
45619;DHT22;31343;47.520;19.144;2024-01-11T03:57:27;-5.50;99.90
45619;DHT22;31343;47.520;19.144;2024-01-11T03:59:53;-5.50;99.90
45619;DHT22;31343;47.520;19.144;2024-01-11T04:02:19;-5.40;99.90
45619;DHT22;31343;47.520;19.144;2024-01-11T04:04:44;-5.40;99.90
45619;DHT22;31343;47.520;19.144;2024-01-11T04:07:10;-5.50;99.90
45619;DHT22;31343;47.520;19.144;2024-01-11T04:09:38;-5.50;99.90
45619;DHT22;31343;47.520;19.144;2024-01-11T04:12:04;-5.40;99.90
45619;DHT22;31343;47.520;19.144;2024-01-11T04:14:30;-5.50;99.90
45619;DHT22;31343;47.520;19.144;2024-01-11T04:16:56;-5.50;99.90
45619;DHT22;31343;47.520;19.144;2024-01-11T04:19:22;-5.60;99.90
45619;DHT22;31343;47.520;19.144;2024-01-11T04:21:47;-5.70;99.90
45619;DHT22;31343;47.520;19.144;2024-01-11T04:24:13;-5.60;99.90
45619;DHT22;31343;47.520;19.144;2024-01-11T04:26:39;-5.60;99.90
45619;DHT22;31343;47.520;19.144;2024-01-11T04:29:05;-5.60;99.90
45619;DHT22;31343;47.520;19.144;2024-01-11T04:31:30;-5.60;99.90
45619;DHT22;31343;47.520;19.144;2024-01-11T04:33:57;-5.60;99.90
45619;DHT22;31343;47.520;19.144;2024-01-11T04:36:23;-5.70;99.90
45619;DHT22;31343;47.520;19.144;2024-01-11T04:38:48;-5.60;99.90
45619;DHT22;31343;47.520;19.144;2024-01-11T04:41:15;-5.60;99.90
45619;DHT22;31343;47.520;19.144;2024-01-11T04:43:42;-5.60;99.90
45619;DHT22;31343;47.520;19.144;2024-01-11T04:46:22;-5.60;99.90
45619;DHT22;31343;47.520;19.144;2024-01-11T04:48:48;-5.60;99.90
45619;DHT22;31343;47.520;19.144;2024-01-11T04:51:15;-5.60;99.90
45619;DHT22;31343;47.520;19.144;2024-01-11T04:53:43;-5.60;99.90
45619;DHT22;31343;47.520;19.144;2024-01-11T04:56:10;-5.50;99.90
45619;DHT22;31343;47.520;19.144;2024-01-11T04:58:36;-5.50;99.90
45619;DHT22;31343;47.520;19.144;2024-01-11T05:01:04;-5.50;99.90
45619;DHT22;31343;47.520;19.144;2024-01-11T05:03:30;-5.50;99.90
45619;DHT22;31343;47.520;19.144;2024-01-11T05:05:59;-5.50;99.90
45619;DHT22;31343;47.520;19.144;2024-01-11T05:08:26;-5.50;99.90
45619;DHT22;31343;47.520;19.144;2024-01-11T05:10:52;-5.50;99.90
45619;DHT22;31343;47.520;19.144;2024-01-11T05:13:18;-5.60;99.90
45619;DHT22;31343;47.520;19.144;2024-01-11T05:15:44;-5.60;99.90
45619;DHT22;31343;47.520;19.144;2024-01-11T05:18:09;-5.60;99.90
45619;DHT22;31343;47.520;19.144;2024-01-11T05:20:36;-5.60;99.90
45619;DHT22;31343;47.520;19.144;2024-01-11T05:23:02;-5.60;99.90
45619;DHT22;31343;47.520;19.144;2024-01-11T05:25:27;-5.70;99.90
45619;DHT22;31343;47.520;19.144;2024-01-11T05:27:53;-5.70;99.90
45619;DHT22;31343;47.520;19.144;2024-01-11T05:30:19;-5.70;99.90
45619;DHT22;31343;47.520;19.144;2024-01-11T05:32:46;-5.70;99.90
45619;DHT22;31343;47.520;19.144;2024-01-11T05:35:11;-5.80;99.90
45619;DHT22;31343;47.520;19.144;2024-01-11T05:37:37;-5.80;99.90
45619;DHT22;31343;47.520;19.144;2024-01-11T05:40:03;-5.80;99.90
45619;DHT22;31343;47.520;19.144;2024-01-11T05:42:29;-5.80;99.90
45619;DHT22;31343;47.520;19.144;2024-01-11T05:44:55;-5.80;99.90
45619;DHT22;31343;47.520;19.144;2024-01-11T05:47:21;-5.80;99.90
45619;DHT22;31343;47.520;19.144;2024-01-11T05:49:47;-5.80;99.90
45619;DHT22;31343;47.520;19.144;2024-01-11T05:52:13;-5.80;99.90
45619;DHT22;31343;47.520;19.144;2024-01-11T05:54:39;-5.70;99.90
45619;DHT22;31343;47.520;19.144;2024-01-11T05:57:04;-5.80;99.90
45619;DHT22;31343;47.520;19.144;2024-01-11T05:59:31;-5.80;99.90
45619;DHT22;31343;47.520;19.144;2024-01-11T06:01:57;-5.80;99.90
45619;DHT22;31343;47.520;19.144;2024-01-11T06:04:26;-5.90;99.90
45619;DHT22;31343;47.520;19.144;2024-01-11T06:06:51;-5.80;99.90
45619;DHT22;31343;47.520;19.144;2024-01-11T06:09:17;-5.80;99.90
45619;DHT22;31343;47.520;19.144;2024-01-11T06:11:43;-5.90;99.90
45619;DHT22;31343;47.520;19.144;2024-01-11T06:14:09;-5.80;99.90
45619;DHT22;31343;47.520;19.144;2024-01-11T06:16:34;-5.80;99.90
45619;DHT22;31343;47.520;19.144;2024-01-11T06:19:00;-5.90;99.90
45619;DHT22;31343;47.520;19.144;2024-01-11T06:21:26;-5.80;99.90
45619;DHT22;31343;47.520;19.144;2024-01-11T06:23:51;-5.80;99.90
45619;DHT22;31343;47.520;19.144;2024-01-11T06:26:17;-5.90;99.90
45619;DHT22;31343;47.520;19.144;2024-01-11T06:28:43;-5.90;99.90
45619;DHT22;31343;47.520;19.144;2024-01-11T06:31:10;-5.90;99.90
45619;DHT22;31343;47.520;19.144;2024-01-11T06:33:36;-5.90;99.90
45619;DHT22;31343;47.520;19.144;2024-01-11T06:36:07;-5.80;99.90
45619;DHT22;31343;47.520;19.144;2024-01-11T06:38:33;-5.80;99.90
45619;DHT22;31343;47.520;19.144;2024-01-11T06:40:59;-5.80;99.90
45619;DHT22;31343;47.520;19.144;2024-01-11T06:43:25;-5.90;99.90
45619;DHT22;31343;47.520;19.144;2024-01-11T06:45:51;-5.90;99.90
45619;DHT22;31343;47.520;19.144;2024-01-11T06:48:18;-5.90;99.90
45619;DHT22;31343;47.520;19.144;2024-01-11T06:50:44;-5.90;99.90
45619;DHT22;31343;47.520;19.144;2024-01-11T06:53:09;-5.80;99.90
45619;DHT22;31343;47.520;19.144;2024-01-11T06:55:35;-5.70;99.90
45619;DHT22;31343;47.520;19.144;2024-01-11T06:58:01;-5.70;99.90
45619;DHT22;31343;47.520;19.144;2024-01-11T07:00:27;-5.50;99.90
45619;DHT22;31343;47.520;19.144;2024-01-11T07:02:53;-5.50;99.90
45619;DHT22;31343;47.520;19.144;2024-01-11T07:05:19;-5.20;99.90
45619;DHT22;31343;47.520;19.144;2024-01-11T07:07:46;-4.80;99.90
45619;DHT22;31343;47.520;19.144;2024-01-11T07:10:12;-4.60;99.90
45619;DHT22;31343;47.520;19.144;2024-01-11T07:12:38;-4.40;99.90
45619;DHT22;31343;47.520;19.144;2024-01-11T07:15:06;-3.80;99.90
45619;DHT22;31343;47.520;19.144;2024-01-11T07:17:33;-3.40;99.90
45619;DHT22;31343;47.520;19.144;2024-01-11T07:19:59;-3.00;99.90
45619;DHT22;31343;47.520;19.144;2024-01-11T07:22:25;-3.20;99.90
45619;DHT22;31343;47.520;19.144;2024-01-11T07:24:51;-3.50;99.90
45619;DHT22;31343;47.520;19.144;2024-01-11T07:27:17;-3.50;99.90
45619;DHT22;31343;47.520;19.144;2024-01-11T07:29:42;-3.30;99.90
45619;DHT22;31343;47.520;19.144;2024-01-11T07:32:08;-3.10;99.90
45619;DHT22;31343;47.520;19.144;2024-01-11T07:34:34;-2.90;99.90
45619;DHT22;31343;47.520;19.144;2024-01-11T07:37:00;-2.70;99.90
45619;DHT22;31343;47.520;19.144;2024-01-11T07:39:25;-2.90;99.90
45619;DHT22;31343;47.520;19.144;2024-01-11T07:41:51;-2.90;99.90
45619;DHT22;31343;47.520;19.144;2024-01-11T07:44:18;-2.60;99.90
45619;DHT22;31343;47.520;19.144;2024-01-11T07:46:44;-2.40;99.90
45619;DHT22;31343;47.520;19.144;2024-01-11T07:49:09;-2.30;99.90
45619;DHT22;31343;47.520;19.144;2024-01-11T07:51:35;-2.10;99.90
45619;DHT22;31343;47.520;19.144;2024-01-11T07:54:01;-2.00;99.90
45619;DHT22;31343;47.520;19.144;2024-01-11T07:56:28;-1.90;99.90
45619;DHT22;31343;47.520;19.144;2024-01-11T07:58:54;-1.60;99.90
45619;DHT22;31343;47.520;19.144;2024-01-11T08:01:21;-1.50;99.90
45619;DHT22;31343;47.520;19.144;2024-01-11T08:03:46;-1.20;99.90
45619;DHT22;31343;47.520;19.144;2024-01-11T08:06:13;-1.00;99.90
45619;DHT22;31343;47.520;19.144;2024-01-11T08:08:39;-0.90;99.90
45619;DHT22;31343;47.520;19.144;2024-01-11T08:11:06;-0.70;99.90
45619;DHT22;31343;47.520;19.144;2024-01-11T08:13:32;-0.60;99.90
45619;DHT22;31343;47.520;19.144;2024-01-11T08:16:03;-0.40;99.90
45619;DHT22;31343;47.520;19.144;2024-01-11T08:18:30;-0.30;99.90
45619;DHT22;31343;47.520;19.144;2024-01-11T08:20:56;-0.10;99.90
45619;DHT22;31343;47.520;19.144;2024-01-11T08:23:22;0.00;99.90
45619;DHT22;31343;47.520;19.144;2024-01-11T08:25:47;0.20;99.90
45619;DHT22;31343;47.520;19.144;2024-01-11T08:28:13;0.20;99.90
45619;DHT22;31343;47.520;19.144;2024-01-11T08:30:39;0.30;99.90
45619;DHT22;31343;47.520;19.144;2024-01-11T08:33:04;0.30;99.90
45619;DHT22;31343;47.520;19.144;2024-01-11T08:35:30;0.50;99.90
45619;DHT22;31343;47.520;19.144;2024-01-11T08:37:57;0.60;99.90
45619;DHT22;31343;47.520;19.144;2024-01-11T08:40:23;0.70;99.90
45619;DHT22;31343;47.520;19.144;2024-01-11T08:42:49;0.80;99.90
45619;DHT22;31343;47.520;19.144;2024-01-11T08:45:14;1.00;99.90
45619;DHT22;31343;47.520;19.144;2024-01-11T08:47:45;1.10;99.90
45619;DHT22;31343;47.520;19.144;2024-01-11T08:50:14;1.20;99.90
45619;DHT22;31343;47.520;19.144;2024-01-11T08:52:41;1.20;99.90
45619;DHT22;31343;47.520;19.144;2024-01-11T08:55:07;1.20;99.90
45619;DHT22;31343;47.520;19.144;2024-01-11T08:57:33;1.40;99.90
45619;DHT22;31343;47.520;19.144;2024-01-11T09:00:04;1.40;99.50
45619;DHT22;31343;47.520;19.144;2024-01-11T09:02:31;1.30;99.60
45619;DHT22;31343;47.520;19.144;2024-01-11T09:04:57;1.40;99.20
45619;DHT22;31343;47.520;19.144;2024-01-11T09:07:23;1.40;98.70
45619;DHT22;31343;47.520;19.144;2024-01-11T09:09:48;1.50;98.90
45619;DHT22;31343;47.520;19.144;2024-01-11T09:12:14;1.60;97.70
45619;DHT22;31343;47.520;19.144;2024-01-11T09:14:40;1.60;97.40
45619;DHT22;31343;47.520;19.144;2024-01-11T09:17:05;1.70;96.70
45619;DHT22;31343;47.520;19.144;2024-01-11T09:19:32;1.70;96.10
45619;DHT22;31343;47.520;19.144;2024-01-11T09:21:59;1.80;96.00
45619;DHT22;31343;47.520;19.144;2024-01-11T09:24:25;1.90;96.00
45619;DHT22;31343;47.520;19.144;2024-01-11T09:26:51;1.90;96.30
45619;DHT22;31343;47.520;19.144;2024-01-11T09:29:16;2.00;95.90
45619;DHT22;31343;47.520;19.144;2024-01-11T09:31:42;2.00;95.30
45619;DHT22;31343;47.520;19.144;2024-01-11T09:34:08;1.90;95.20
45619;DHT22;31343;47.520;19.144;2024-01-11T09:36:34;1.90;95.10
45619;DHT22;31343;47.520;19.144;2024-01-11T09:39:00;2.00;94.60
45619;DHT22;31343;47.520;19.144;2024-01-11T09:41:26;2.10;94.00
45619;DHT22;31343;47.520;19.144;2024-01-11T09:43:54;2.20;94.20
45619;DHT22;31343;47.520;19.144;2024-01-11T09:46:23;2.10;93.70
45619;DHT22;31343;47.520;19.144;2024-01-11T09:48:50;2.20;92.90
45619;DHT22;31343;47.520;19.144;2024-01-11T09:51:18;2.10;92.60
45619;DHT22;31343;47.520;19.144;2024-01-11T09:53:44;2.20;93.00
45619;DHT22;31343;47.520;19.144;2024-01-11T09:56:10;2.30;92.50
45619;DHT22;31343;47.520;19.144;2024-01-11T09:58:36;2.50;91.90
45619;DHT22;31343;47.520;19.144;2024-01-11T10:01:02;2.50;91.10
45619;DHT22;31343;47.520;19.144;2024-01-11T10:03:28;2.60;90.90
45619;DHT22;31343;47.520;19.144;2024-01-11T10:05:57;2.60;89.20
45619;DHT22;31343;47.520;19.144;2024-01-11T10:08:23;2.70;87.40
45619;DHT22;31343;47.520;19.144;2024-01-11T10:10:49;2.70;89.10
45619;DHT22;31343;47.520;19.144;2024-01-11T10:13:16;2.80;88.90
45619;DHT22;31343;47.520;19.144;2024-01-11T10:15:42;2.90;89.40
45619;DHT22;31343;47.520;19.144;2024-01-11T10:18:08;2.90;88.20
45619;DHT22;31343;47.520;19.144;2024-01-11T10:20:34;2.80;88.20
45619;DHT22;31343;47.520;19.144;2024-01-11T10:23:00;2.90;87.60
45619;DHT22;31343;47.520;19.144;2024-01-11T10:25:26;3.00;88.90
45619;DHT22;31343;47.520;19.144;2024-01-11T10:27:52;3.10;88.70
45619;DHT22;31343;47.520;19.144;2024-01-11T10:30:18;3.20;88.60
45619;DHT22;31343;47.520;19.144;2024-01-11T10:32:46;3.40;87.60
45619;DHT22;31343;47.520;19.144;2024-01-11T10:35:12;3.40;87.60
45619;DHT22;31343;47.520;19.144;2024-01-11T10:37:39;3.40;87.40
45619;DHT22;31343;47.520;19.144;2024-01-11T10:40:08;3.60;88.00
45619;DHT22;31343;47.520;19.144;2024-01-11T10:42:51;3.70;88.40
45619;DHT22;31343;47.520;19.144;2024-01-11T10:45:19;3.60;89.60
45619;DHT22;31343;47.520;19.144;2024-01-11T10:47:54;3.70;90.30
45619;DHT22;31343;47.520;19.144;2024-01-11T10:50:23;3.60;90.50
45619;DHT22;31343;47.520;19.144;2024-01-11T10:53:21;3.80;90.60
45619;DHT22;31343;47.520;19.144;2024-01-11T10:55:51;3.90;90.40
45619;DHT22;31343;47.520;19.144;2024-01-11T10:58:18;3.90;90.20
45619;DHT22;31343;47.520;19.144;2024-01-11T11:00:45;3.90;90.30
45619;DHT22;31343;47.520;19.144;2024-01-11T11:03:12;4.00;90.70
45619;DHT22;31343;47.520;19.144;2024-01-11T11:05:40;3.90;88.70
45619;DHT22;31343;47.520;19.144;2024-01-11T11:08:07;4.00;90.00
45619;DHT22;31343;47.520;19.144;2024-01-11T11:10:34;4.10;88.90
45619;DHT22;31343;47.520;19.144;2024-01-11T11:13:00;4.20;89.20
45619;DHT22;31343;47.520;19.144;2024-01-11T11:15:29;4.50;89.50
45619;DHT22;31343;47.520;19.144;2024-01-11T11:17:55;4.60;87.60
45619;DHT22;31343;47.520;19.144;2024-01-11T11:20:21;4.70;87.70
45619;DHT22;31343;47.520;19.144;2024-01-11T11:23:04;5.00;87.60
45619;DHT22;31343;47.520;19.144;2024-01-11T11:25:30;5.10;87.20
45619;DHT22;31343;47.520;19.144;2024-01-11T11:27:56;5.30;86.90
45619;DHT22;31343;47.520;19.144;2024-01-11T11:30:22;5.50;86.50
45619;DHT22;31343;47.520;19.144;2024-01-11T11:32:49;5.50;86.50
45619;DHT22;31343;47.520;19.144;2024-01-11T11:35:14;5.80;85.80
45619;DHT22;31343;47.520;19.144;2024-01-11T11:37:40;6.20;85.10
45619;DHT22;31343;47.520;19.144;2024-01-11T11:40:08;6.30;84.80
45619;DHT22;31343;47.520;19.144;2024-01-11T11:42:36;6.30;85.10
45619;DHT22;31343;47.520;19.144;2024-01-11T11:45:02;6.50;85.00
45619;DHT22;31343;47.520;19.144;2024-01-11T11:47:35;6.70;83.90
45619;DHT22;31343;47.520;19.144;2024-01-11T11:50:08;6.50;84.60
45619;DHT22;31343;47.520;19.144;2024-01-11T11:52:39;6.60;83.10
45619;DHT22;31343;47.520;19.144;2024-01-11T11:55:08;6.80;82.30
45619;DHT22;31343;47.520;19.144;2024-01-11T11:57:35;6.90;80.80
45619;DHT22;31343;47.520;19.144;2024-01-11T12:00:02;6.70;81.70
45619;DHT22;31343;47.520;19.144;2024-01-11T12:02:31;6.70;81.50
45619;DHT22;31343;47.520;19.144;2024-01-11T12:04:57;6.90;82.60
45619;DHT22;31343;47.520;19.144;2024-01-11T12:07:24;6.70;81.70
45619;DHT22;31343;47.520;19.144;2024-01-11T12:09:51;6.60;81.70
45619;DHT22;31343;47.520;19.144;2024-01-11T12:12:17;6.70;82.30
45619;DHT22;31343;47.520;19.144;2024-01-11T12:14:46;6.40;82.70
45619;DHT22;31343;47.520;19.144;2024-01-11T12:17:12;6.50;82.40
45619;DHT22;31343;47.520;19.144;2024-01-11T12:19:38;6.30;82.50
45619;DHT22;31343;47.520;19.144;2024-01-11T12:22:04;6.20;83.30
45619;DHT22;31343;47.520;19.144;2024-01-11T12:24:30;6.40;83.00
45619;DHT22;31343;47.520;19.144;2024-01-11T12:26:56;6.60;81.10
45619;DHT22;31343;47.520;19.144;2024-01-11T12:29:25;6.80;81.30
45619;DHT22;31343;47.520;19.144;2024-01-11T12:31:51;7.40;80.20
45619;DHT22;31343;47.520;19.144;2024-01-11T12:34:17;7.40;80.30
45619;DHT22;31343;47.520;19.144;2024-01-11T12:36:43;7.80;79.70
45619;DHT22;31343;47.520;19.144;2024-01-11T12:39:10;8.00;79.10
45619;DHT22;31343;47.520;19.144;2024-01-11T12:41:39;8.40;78.50
45619;DHT22;31343;47.520;19.144;2024-01-11T12:44:05;8.20;77.30
45619;DHT22;31343;47.520;19.144;2024-01-11T12:46:31;8.70;76.50
45619;DHT22;31343;47.520;19.144;2024-01-11T12:48:57;8.90;75.60
45619;DHT22;31343;47.520;19.144;2024-01-11T12:51:25;9.00;75.70
45619;DHT22;31343;47.520;19.144;2024-01-11T12:53:52;9.10;73.70
45619;DHT22;31343;47.520;19.144;2024-01-11T12:56:18;9.30;72.80
45619;DHT22;31343;47.520;19.144;2024-01-11T12:58:46;9.40;72.00
45619;DHT22;31343;47.520;19.144;2024-01-11T13:01:12;9.30;72.00
45619;DHT22;31343;47.520;19.144;2024-01-11T13:03:43;8.80;71.50
45619;DHT22;31343;47.520;19.144;2024-01-11T13:06:09;8.10;72.90
45619;DHT22;31343;47.520;19.144;2024-01-11T13:08:37;7.20;74.70
45619;DHT22;31343;47.520;19.144;2024-01-11T13:11:05;6.70;75.70
45619;DHT22;31343;47.520;19.144;2024-01-11T13:13:35;6.70;76.50
45619;DHT22;31343;47.520;19.144;2024-01-11T13:16:01;6.50;77.80
45619;DHT22;31343;47.520;19.144;2024-01-11T13:18:32;6.60;77.40
45619;DHT22;31343;47.520;19.144;2024-01-11T13:20:57;6.70;76.80
45619;DHT22;31343;47.520;19.144;2024-01-11T13:23:23;7.00;75.70
45619;DHT22;31343;47.520;19.144;2024-01-11T13:25:50;7.10;75.70
45619;DHT22;31343;47.520;19.144;2024-01-11T13:28:16;6.90;74.70
45619;DHT22;31343;47.520;19.144;2024-01-11T13:30:44;7.20;74.40
45619;DHT22;31343;47.520;19.144;2024-01-11T13:33:11;7.20;73.90
45619;DHT22;31343;47.520;19.144;2024-01-11T13:35:38;7.00;71.90
45619;DHT22;31343;47.520;19.144;2024-01-11T13:38:04;6.40;72.30
45619;DHT22;31343;47.520;19.144;2024-01-11T13:40:30;5.90;73.10
45619;DHT22;31343;47.520;19.144;2024-01-11T13:42:56;5.80;73.60
45619;DHT22;31343;47.520;19.144;2024-01-11T13:45:23;5.30;74.40
45619;DHT22;31343;47.520;19.144;2024-01-11T13:47:49;5.20;75.20
45619;DHT22;31343;47.520;19.144;2024-01-11T13:50:15;5.10;76.00
45619;DHT22;31343;47.520;19.144;2024-01-11T13:52:41;4.90;76.40
45619;DHT22;31343;47.520;19.144;2024-01-11T13:55:07;4.80;76.80
45619;DHT22;31343;47.520;19.144;2024-01-11T13:57:36;4.70;76.90
45619;DHT22;31343;47.520;19.144;2024-01-11T14:00:05;4.50;77.40
45619;DHT22;31343;47.520;19.144;2024-01-11T14:02:32;4.30;77.80
45619;DHT22;31343;47.520;19.144;2024-01-11T14:04:59;4.20;78.70
45619;DHT22;31343;47.520;19.144;2024-01-11T14:07:25;4.20;78.90
45619;DHT22;31343;47.520;19.144;2024-01-11T14:09:53;4.10;79.60
45619;DHT22;31343;47.520;19.144;2024-01-11T14:12:19;4.10;79.10
45619;DHT22;31343;47.520;19.144;2024-01-11T14:14:45;4.00;79.70
45619;DHT22;31343;47.520;19.144;2024-01-11T14:17:10;4.00;80.60
45619;DHT22;31343;47.520;19.144;2024-01-11T14:19:36;4.10;80.60
45619;DHT22;31343;47.520;19.144;2024-01-11T14:22:02;4.00;80.80
45619;DHT22;31343;47.520;19.144;2024-01-11T14:24:27;4.00;81.00
45619;DHT22;31343;47.520;19.144;2024-01-11T14:26:54;3.90;81.80
45619;DHT22;31343;47.520;19.144;2024-01-11T14:29:19;3.90;81.40
45619;DHT22;31343;47.520;19.144;2024-01-11T14:31:45;3.80;81.70
45619;DHT22;31343;47.520;19.144;2024-01-11T14:34:11;3.70;81.60
45619;DHT22;31343;47.520;19.144;2024-01-11T14:36:37;3.70;82.20
45619;DHT22;31343;47.520;19.144;2024-01-11T14:39:03;3.60;82.70
45619;DHT22;31343;47.520;19.144;2024-01-11T14:41:31;3.60;82.70
45619;DHT22;31343;47.520;19.144;2024-01-11T14:43:57;3.50;82.70
45619;DHT22;31343;47.520;19.144;2024-01-11T14:46:25;3.50;81.60
45619;DHT22;31343;47.520;19.144;2024-01-11T14:48:51;3.30;78.00
45619;DHT22;31343;47.520;19.144;2024-01-11T14:51:18;3.30;81.50
45619;DHT22;31343;47.520;19.144;2024-01-11T14:53:44;3.20;81.40
45619;DHT22;31343;47.520;19.144;2024-01-11T14:56:11;3.20;81.80
45619;DHT22;31343;47.520;19.144;2024-01-11T14:58:36;3.10;83.10
45619;DHT22;31343;47.520;19.144;2024-01-11T15:01:02;2.90;85.30
45619;DHT22;31343;47.520;19.144;2024-01-11T15:03:29;2.80;87.50
45619;DHT22;31343;47.520;19.144;2024-01-11T15:05:55;2.80;89.20
45619;DHT22;31343;47.520;19.144;2024-01-11T15:08:21;2.70;90.10
45619;DHT22;31343;47.520;19.144;2024-01-11T15:10:47;2.50;90.80
45619;DHT22;31343;47.520;19.144;2024-01-11T15:13:13;2.50;91.00
45619;DHT22;31343;47.520;19.144;2024-01-11T15:15:39;2.40;91.30
45619;DHT22;31343;47.520;19.144;2024-01-11T15:18:05;2.20;91.30